Kezdőlap
METAR-TAF:

METAR-TAF

Repülőterek :

Phillip Goldston

Belize City, Belize

földrajzi szélesség: 17-32N, földrajzi hosszúság: 088-18W, magasság: 5 m

Jelenlegi meteorológiai megfigyelések

A jelentés 1 órával és 3 perccel ezelõtt készült, 14:00 UTC
Északi szél 4 kt
Hőmérséklet 22°C
Páratartalom 94%
Légköri nyomás 1018 hPa
Látótávolság 10 km, vagy több
Kevés felhő 1000 lábon

METAR: MZBZ 251400Z 36004KT 9999 FEW010 22/21 A3008 Q1018 NOSIG

Idő: 09:03 (15:03 UTC)

Előrejelzés

A jelentés 4 órával és 23 perccel ezelõtt készült, 10:40 UTC
Az előrejelzés 25-én 12 óra UTC és 26-én 12 óra UTC között érvényes
Kelet-északkeleti szél 5 kt
Látótávolság 10 km, vagy több
Kevés felhő 2400 lábon

TAF: MZBZ 251040Z 2512/2612 06005KT 9999 FEW024

Meteorológiai megfigyelések és előrejelzések több, mint 4000 repülőtéren (METAR és TAF jelentéseket).

A térképen piros és sárga pontok jelzik az elérhető meteorológiai állomásokat.

Mozgassa az egeret a pont fölött, hogy megjelenjen az állomás neve.

Azután kattintson az időjárási megfigyelések és előrejelzések megtekintéséhez.

A térkép megváltoztatása: kattintson a fekete keresztel jelölt zöld gombra ráközelítéshez, a vonallal jelölt zöld gombra távolításhoz, vagy a zöld nyilakra a szomszédos térképek eléréséhez.


METAR-TAF: